Time;durP1;ratioP1;P1;durP2;ratioP2;P2;SDS_P1;SDS_P2;PMS_P1;PMS_P2;Temp;Humidity;BMP_temperature;BMP_pressure;BME280_temperature;BME280_humidity;BME280_pressure;Samples;Min_cycle;Max_cycle;Signal;HPM_P1;HPM_P2
2023/12/13 00:01:44;;;;;;;7.20;1.17;;;;;;;11.16;91.73;99039.56;5061536;28;20223;-69
2023/12/13 00:04:12;;;;;;;4.80;1.63;;;;;;;11.09;92.51;99046.59;5061884;28;20226;-68
2023/12/13 00:06:41;;;;;;;5.87;1.30;;;;;;;11.05;93.00;99040.03;5062794;28;20767;-67
2023/12/13 00:09:09;;;;;;;12.63;1.60;;;;;;;11.00;93.30;99034.44;5063089;28;20206;-68
2023/12/13 00:11:53;;;;;;;5.27;1.27;;;;;;;10.93;93.72;99037.00;5059487;28;20215;-70
2023/12/13 00:14:22;;;;;;;6.23;1.67;;;;;;;10.83;94.57;99031.16;5060896;28;20286;-67
2023/12/13 00:16:54;;;;;;;6.13;1.50;;;;;;;10.76;95.24;99028.44;5059367;28;20218;-71
2023/12/13 00:19:23;;;;;;;7.93;1.43;;;;;;;10.74;95.59;99029.63;5064770;28;20205;-69
2023/12/13 00:24:54;;;;;;;3.80;1.30;;;;;;;10.68;95.78;99027.72;5058377;28;20238;-69
2023/12/13 00:30:45;;;;;;;8.53;1.83;;;;;;;10.72;96.26;99024.53;5061688;28;20288;-67
2023/12/13 00:33:21;;;;;;;5.17;1.20;;;;;;;10.74;95.54;99021.66;5061910;28;20217;-68
2023/12/13 00:35:49;;;;;;;7.73;1.60;;;;;;;10.78;95.50;99022.94;5062052;28;20294;-69
2023/12/13 00:44:17;;;;;;;4.70;1.10;;;;;;;10.94;93.64;99030.69;5061126;28;20215;-69
2023/12/13 00:47:05;;;;;;;6.90;1.40;;;;;;;11.00;92.91;99031.78;5061488;28;20876;-68
2023/12/13 00:49:36;;;;;;;4.87;1.00;;;;;;;11.03;92.43;99028.78;5063970;28;20283;-69
2023/12/13 00:52:05;;;;;;;4.43;0.93;;;;;;;11.01;92.54;99038.72;5062450;28;20229;-70
2023/12/13 00:54:33;;;;;;;5.30;2.10;;;;;;;11.02;91.85;99040.38;5063778;28;20209;-68
2023/12/13 00:57:02;;;;;;;5.50;1.27;;;;;;;11.02;92.00;99035.06;5062319;28;20216;-69
2023/12/13 01:06:36;;;;;;;4.73;1.30;;;;;;;10.97;90.91;99035.66;5063278;28;20225;-72
2023/12/13 01:09:08;;;;;;;2.93;0.90;;;;;;;10.96;91.35;99035.81;5063232;28;20199;-68
2023/12/13 01:11:36;;;;;;;5.90;1.30;;;;;;;10.98;90.88;99034.66;5064001;28;20260;-71
2023/12/13 01:14:18;;;;;;;3.83;1.30;;;;;;;11.05;90.19;99047.97;5061373;28;20214;-70
2023/12/13 01:16:47;;;;;;;4.37;0.83;;;;;;;11.10;89.44;99048.22;5062286;28;20256;-68
2023/12/13 01:25:06;;;;;;;6.77;1.07;;;;;;;11.28;85.48;99046.00;5063157;28;20198;-68
2023/12/13 01:27:35;;;;;;;6.47;1.10;;;;;;;11.32;84.95;99057.91;5062464;28;20217;-72
2023/12/13 01:30:44;;;;;;;3.03;0.80;;;;;;;11.41;84.68;99059.44;5062067;28;20221;-68
2023/12/13 01:33:16;;;;;;;5.53;1.03;;;;;;;11.46;84.21;99054.38;5061534;28;20211;-68
2023/12/13 01:42:14;;;;;;;4.53;1.40;;;;;;;11.51;83.08;99051.16;5061184;28;20578;-69
2023/12/13 01:44:57;;;;;;;5.53;0.90;;;;;;;11.51;83.00;99052.00;5063425;28;20192;-69
2023/12/13 01:50:49;;;;;;;3.90;0.90;;;;;;;11.47;82.54;99049.88;5058631;28;20257;-70
2023/12/13 01:53:50;;;;;;;6.47;0.80;;;;;;;11.44;82.41;99051.06;5061371;28;20231;-69
2023/12/13 01:56:22;;;;;;;3.97;0.90;;;;;;;11.46;82.44;99053.53;5060037;28;20912;-68
2023/12/13 01:58:55;;;;;;;8.07;1.47;;;;;;;11.44;82.49;99045.75;5061829;28;20195;-68
2023/12/13 02:01:26;;;;;;;4.43;1.00;;;;;;;11.43;82.50;99049.47;5044256;28;20206;-69
2023/12/13 02:03:56;;;;;;;8.97;1.53;;;;;;;11.46;82.32;99049.06;5060404;28;20346;-69
2023/12/13 02:06:24;;;;;;;6.47;1.30;;;;;;;11.48;82.21;99052.34;5061535;28;20208;-68
2023/12/13 02:09:24;;;;;;;10.93;1.37;;;;;;;11.44;81.63;99045.75;5059971;28;20216;-70
2023/12/13 02:11:52;;;;;;;6.63;1.30;;;;;;;11.44;81.67;99034.31;5062939;28;20216;-68
2023/12/13 02:14:41;;;;;;;8.10;1.50;;;;;;;11.43;81.66;99022.91;5061718;28;20326;-68
2023/12/13 02:17:09;;;;;;;9.60;1.90;;;;;;;11.42;81.82;99029.22;5059491;28;20215;-69
2023/12/13 02:19:37;;;;;;;6.57;1.37;;;;;;;11.44;82.09;99024.53;5062509;28;20215;-69
2023/12/13 02:22:37;;;;;;;5.73;0.90;;;;;;;11.44;82.03;99029.03;5061910;28;20215;-69
2023/12/13 02:25:20;;;;;;;7.07;1.07;;;;;;;11.48;82.16;99022.34;5060751;28;20642;-68
2023/12/13 02:27:48;;;;;;;6.23;1.20;;;;;;;11.46;81.78;99017.22;5059761;28;20265;-67
2023/12/13 02:30:17;;;;;;;6.07;1.20;;;;;;;11.44;81.83;99024.53;5060649;28;20318;-68
2023/12/13 02:32:46;;;;;;;5.77;1.10;;;;;;;11.43;82.12;99028.22;5062691;28;20203;-67
2023/12/13 02:35:16;;;;;;;9.40;1.23;;;;;;;11.41;82.08;99029.41;5065756;28;20280;-68
2023/12/13 02:37:48;;;;;;;6.33;1.23;;;;;;;11.42;81.95;99025.75;5064800;28;20269;-69
2023/12/13 02:40:18;;;;;;;6.93;0.83;;;;;;;11.37;81.92;99023.66;5065699;28;20713;-67
2023/12/13 02:47:15;;;;;;;2.20;0.90;;;;;;;11.40;81.96;99015.31;5061606;28;20284;-70
2023/12/13 02:50:17;;;;;;;10.00;1.53;;;;;;;11.38;82.04;99011.19;5058627;28;20297;-69
2023/12/13 02:53:41;;;;;;;3.00;0.70;;;;;;;11.14;82.42;99012.38;5061127;28;20349;-70
2023/12/13 03:00:09;;;;;;;9.63;1.13;;;;;;;10.79;85.43;99001.56;5064557;28;20245;-69
2023/12/13 03:02:52;;;;;;;5.57;1.00;;;;;;;10.69;86.76;99002.84;5065089;28;20223;-67
2023/12/13 03:05:37;;;;;;;8.73;1.27;;;;;;;10.64;87.88;98995.47;5063035;28;20835;-69
2023/12/13 03:08:09;;;;;;;4.77;1.20;;;;;;;10.49;89.21;99005.22;5065486;28;20214;-68
2023/12/13 03:10:47;;;;;;;5.43;0.93;;;;;;;10.39;90.80;99013.44;5063026;28;20204;-68
2023/12/13 03:20:19;;;;;;;3.27;1.30;;;;;;;10.33;91.83;99000.13;5064638;28;20206;-67
2023/12/13 03:25:37;;;;;;;3.67;1.03;;;;;;;10.20;92.16;99002.59;5064137;28;20301;-69
2023/12/13 03:28:21;;;;;;;4.83;1.00;;;;;;;10.21;92.60;98997.06;5066582;28;20196;-69
2023/12/13 03:31:03;;;;;;;3.23;1.10;;;;;;;10.24;92.68;99001.19;5065469;28;20213;-69
2023/12/13 03:33:34;;;;;;;6.17;1.17;;;;;;;10.27;92.79;98991.06;5066650;28;20198;-68
2023/12/13 03:36:06;;;;;;;2.60;0.80;;;;;;;10.28;92.56;98991.91;5066022;28;20219;-69
2023/12/13 03:38:35;;;;;;;3.30;1.00;;;;;;;10.29;92.75;98991.69;5066984;28;20201;-70
2023/12/13 03:44:29;;;;;;;8.50;1.00;;;;;;;10.27;93.27;98979.66;5064851;28;20273;-67
2023/12/13 03:46:58;;;;;;;1.80;0.60;;;;;;;10.30;93.34;98982.75;5066462;28;20206;-69
2023/12/13 03:49:28;;;;;;;7.97;1.00;;;;;;;10.31;93.21;98973.78;5066775;28;20436;-68
2023/12/13 03:52:22;;;;;;;7.43;1.03;;;;;;;10.33;92.90;98976.25;5064784;28;20217;-68
2023/12/13 03:54:50;;;;;;;2.67;0.67;;;;;;;10.28;92.85;98970.72;5064575;28;20214;-69
2023/12/13 04:00:44;;;;;;;5.00;0.80;;;;;;;10.26;93.30;98975.34;5064714;28;20297;-68
2023/12/13 04:03:45;;;;;;;5.30;1.50;;;;;;;10.23;93.34;98975.72;5068128;28;20237;-67
2023/12/13 04:06:14;;;;;;;5.43;0.90;;;;;;;10.24;93.67;98972.06;5063534;28;20205;-72
2023/12/13 04:08:44;;;;;;;4.30;1.00;;;;;;;10.28;93.88;98973.34;5066566;28;20734;-68
2023/12/13 04:11:11;;;;;;;1.83;0.70;;;;;;;10.29;94.09;98975.00;5064883;28;20208;-69
2023/12/13 04:13:40;;;;;;;6.80;1.40;;;;;;;10.35;94.45;98976.91;5065449;28;20225;-69
2023/12/13 04:16:09;;;;;;;3.03;0.67;;;;;;;10.37;94.23;98980.22;5063710;28;20669;-69
2023/12/13 04:18:38;;;;;;;3.50;0.97;;;;;;;10.35;94.55;98975.09;5064614;28;20210;-69
2023/12/13 04:21:10;;;;;;;1.70;0.73;;;;;;;10.39;94.72;98971.06;5064356;28;20212;-69
2023/12/13 04:23:38;;;;;;;4.47;0.80;;;;;;;10.41;94.83;98965.56;5061708;28;20239;-67
2023/12/13 04:26:12;;;;;;;1.83;0.80;;;;;;;10.40;94.74;98971.88;5064974;28;20210;-69
2023/12/13 04:28:58;;;;;;;4.30;0.90;;;;;;;10.46;94.83;98961.38;5063432;28;20212;-67
2023/12/13 04:31:27;;;;;;;3.80;0.70;;;;;;;10.47;94.68;98951.59;5062255;28;20572;-69
2023/12/13 04:34:03;;;;;;;7.80;1.20;;;;;;;10.52;94.32;98949.22;5059575;28;20213;-69
2023/12/13 04:36:32;;;;;;;4.23;0.77;;;;;;;10.53;94.09;98948.22;5060596;28;20639;-68
2023/12/13 04:39:00;;;;;;;3.83;0.80;;;;;;;10.52;94.03;98942.09;5063412;28;20221;-70
2023/12/13 04:41:29;;;;;;;4.83;0.93;;;;;;;10.53;93.96;98940.25;5061943;28;20212;-66
2023/12/13 04:43:57;;;;;;;2.33;0.70;;;;;;;10.50;94.05;98932.66;5063422;28;20564;-67
2023/12/13 04:46:25;;;;;;;6.93;0.97;;;;;;;10.42;94.28;98932.78;5061147;28;20213;-67
2023/12/13 04:48:53;;;;;;;3.63;1.17;;;;;;;10.31;94.76;98930.59;5061104;28;20201;-68
2023/12/13 04:51:21;;;;;;;4.90;1.17;;;;;;;10.20;95.64;98928.41;5062433;28;20294;-67
2023/12/13 04:53:48;;;;;;;7.13;1.37;;;;;;;10.17;96.02;98935.72;5062350;28;20204;-66
2023/12/13 04:56:17;;;;;;;4.17;1.10;;;;;;;10.16;96.25;98935.88;5061897;28;20208;-67
2023/12/13 04:58:46;;;;;;;2.53;0.97;;;;;;;10.09;96.21;98938.41;5063581;28;20629;-67
2023/12/13 05:01:14;;;;;;;4.13;1.10;;;;;;;9.99;96.84;98932.56;5063210;28;20215;-68
2023/12/13 05:03:42;;;;;;;2.07;0.80;;;;;;;9.96;97.01;98934.75;5061992;28;20683;-68
2023/12/13 05:06:14;;;;;;;4.63;1.00;;;;;;;9.95;97.39;98925.16;5062119;28;20204;-69
2023/12/13 05:08:42;;;;;;;8.23;1.60;;;;;;;9.99;97.17;98921.16;5061893;28;20205;-67
2023/12/13 05:11:10;;;;;;;5.50;0.90;;;;;;;10.07;96.70;98927.19;5060121;28;20209;-65
2023/12/13 05:13:38;;;;;;;6.50;1.00;;;;;;;10.06;96.47;98930.00;5058221;28;20232;-67
2023/12/13 05:16:08;;;;;;;5.83;1.00;;;;;;;10.11;96.11;98936.38;5043210;28;20196;-66
2023/12/13 05:18:36;;;;;;;3.37;1.17;;;;;;;10.08;95.87;98931.47;5061896;28;20669;-68
2023/12/13 05:21:05;;;;;;;2.80;1.47;;;;;;;10.13;95.72;98938.88;5062025;28;20528;-69
2023/12/13 05:23:33;;;;;;;5.40;0.80;;;;;;;10.18;95.55;98937.38;5061871;28;20308;-65
2023/12/13 05:26:02;;;;;;;4.53;1.30;;;;;;;10.19;95.30;98930.25;5043949;28;20273;-64
2023/12/13 05:28:29;;;;;;;7.27;1.57;;;;;;;10.23;94.40;98928.03;5062508;28;20580;-66
2023/12/13 05:30:58;;;;;;;5.77;1.30;;;;;;;10.17;94.38;98918.97;5060115;28;20206;-67
2023/12/13 05:33:27;;;;;;;4.53;1.13;;;;;;;10.13;94.68;98915.03;5060075;28;20212;-68
2023/12/13 05:35:55;;;;;;;6.83;1.37;;;;;;;10.11;94.76;98923.16;5062676;28;20213;-66
2023/12/13 05:38:23;;;;;;;11.03;1.50;;;;;;;10.10;94.86;98929.47;5060467;28;21022;-69
2023/12/13 05:40:51;;;;;;;5.17;1.60;;;;;;;10.12;94.66;98927.44;5059423;28;20220;-68
2023/12/13 05:43:19;;;;;;;7.50;1.37;;;;;;;10.11;94.04;98915.19;5061289;28;20225;-70
2023/12/13 05:45:49;;;;;;;7.50;1.77;;;;;;;10.11;94.36;98925.00;5059909;28;20325;-68
2023/12/13 05:48:17;;;;;;;2.97;0.80;;;;;;;10.10;94.25;98918.88;5060137;28;20696;-65
2023/12/13 05:50:47;;;;;;;7.07;1.10;;;;;;;10.09;93.98;98906.63;5060864;28;20200;-69
2023/12/13 05:53:15;;;;;;;8.33;1.17;;;;;;;10.06;94.03;98917.59;5060848;28;20287;-68
2023/12/13 05:55:43;;;;;;;3.90;1.90;;;;;;;10.05;94.59;98915.94;5061779;28;20269;-71
2023/12/13 05:58:13;;;;;;;6.50;1.40;;;;;;;10.07;94.80;98913.94;5058193;28;20203;-68
2023/12/13 06:00:43;;;;;;;5.27;1.17;;;;;;;10.11;94.46;98915.19;5059113;28;20218;-67
2023/12/13 06:03:11;;;;;;;3.07;1.13;;;;;;;10.07;94.18;98918.41;5060685;28;20210;-68
2023/12/13 06:05:39;;;;;;;4.97;1.40;;;;;;;10.09;94.22;98917.25;5058527;28;20229;-68
2023/12/13 06:08:08;;;;;;;7.33;1.37;;;;;;;10.04;94.73;98914.28;5064005;28;20667;-72
2023/12/13 06:10:36;;;;;;;4.00;1.00;;;;;;;10.02;94.52;98918.97;5065423;28;20233;-67
2023/12/13 06:13:04;;;;;;;5.63;1.40;;;;;;;10.01;94.93;98916.50;5065281;28;20197;-70
2023/12/13 06:15:32;;;;;;;5.27;1.33;;;;;;;10.04;95.05;98908.19;5063904;28;20288;-68
2023/12/13 06:18:00;;;;;;;10.63;1.90;;;;;;;10.04;94.92;98903.69;5063987;28;20201;-68
2023/12/13 06:20:28;;;;;;;5.90;1.30;;;;;;;10.05;94.80;98905.34;5063291;28;20753;-68
2023/12/13 06:22:56;;;;;;;9.93;1.73;;;;;;;10.07;95.26;98905.19;5065228;28;20276;-69
2023/12/13 06:25:26;;;;;;;4.63;1.47;;;;;;;10.13;94.71;98913.19;5063533;28;20814;-71
2023/12/13 06:27:54;;;;;;;5.67;1.30;;;;;;;10.14;94.42;98906.91;5063575;28;20203;-68
2023/12/13 06:30:22;;;;;;;3.83;1.10;;;;;;;10.18;94.53;98910.06;5062234;28;20952;-66
2023/12/13 06:32:50;;;;;;;6.93;1.83;;;;;;;10.23;94.16;98909.50;5061595;28;20211;-69
2023/12/13 06:35:18;;;;;;;6.97;1.77;;;;;;;10.27;94.00;98910.78;5061338;28;20279;-68
2023/12/13 06:37:47;;;;;;;3.30;1.20;;;;;;;10.36;93.46;98913.16;5060932;28;20841;-69
2023/12/13 06:40:18;;;;;;;9.00;1.70;;;;;;;10.42;92.96;98901.81;5064481;28;20304;-71
2023/12/13 06:42:48;;;;;;;6.40;1.37;;;;;;;10.43;92.78;98907.94;5061989;28;20234;-67
2023/12/13 06:45:16;;;;;;;4.87;1.70;;;;;;;10.47;92.54;98909.19;5063696;28;20227;-68
2023/12/13 06:47:59;;;;;;;5.97;1.37;;;;;;;10.46;91.94;98899.63;5063814;28;20751;-68
2023/12/13 06:50:36;;;;;;;4.53;1.87;;;;;;;10.43;92.18;98894.69;5063217;28;20242;-68
2023/12/13 06:53:24;;;;;;;4.63;1.53;;;;;;;10.42;92.14;98891.22;5047059;28;20648;-68
2023/12/13 06:56:17;;;;;;;7.07;2.00;;;;;;;10.41;92.29;98894.03;5060135;28;20210;-69
2023/12/13 06:58:55;;;;;;;6.30;2.30;;;;;;;10.36;92.34;98896.44;5060755;28;20937;-70
2023/12/13 07:01:28;;;;;;;7.47;2.47;;;;;;;10.35;92.37;98892.13;5065488;28;20215;-70
2023/12/13 07:07:15;;;;;;;4.57;2.10;;;;;;;10.38;92.23;98899.72;5063557;28;20204;-69
2023/12/13 07:09:47;;;;;;;6.03;1.90;;;;;;;10.38;92.35;98897.88;5055026;28;20269;-71
2023/12/13 07:12:20;;;;;;;9.53;2.93;;;;;;;10.38;92.58;98895.22;5060460;28;20239;-71
2023/12/13 07:14:50;;;;;;;12.70;3.63;;;;;;;10.40;93.16;98892.38;5065766;28;20307;-70
2023/12/13 07:17:19;;;;;;;11.27;3.33;;;;;;;10.38;94.13;98889.91;5064888;28;20599;-69
2023/12/13 07:19:50;;;;;;;5.80;2.83;;;;;;;10.38;93.82;98892.56;5064117;28;20210;-69
2023/12/13 07:22:19;;;;;;;9.87;3.40;;;;;;;10.34;93.42;98888.66;5041102;28;20264;-73
2023/12/13 07:25:06;;;;;;;9.33;3.57;;;;;;;10.25;93.15;98884.47;5058160;28;20238;-69
2023/12/13 07:27:50;;;;;;;8.63;3.13;;;;;;;10.11;94.12;98875.47;5047725;28;20292;-71
2023/12/13 07:30:52;;;;;;;8.33;2.60;;;;;;;10.04;94.56;98876.41;5058543;28;20255;-70
2023/12/13 07:33:45;;;;;;;5.83;2.27;;;;;;;10.00;94.96;98885.72;5061542;28;20213;-71
2023/12/13 07:36:15;;;;;;;5.30;2.23;;;;;;;9.97;95.24;98886.91;5063659;28;20219;-70
2023/12/13 07:38:52;;;;;;;5.97;2.47;;;;;;;10.04;95.31;98887.00;5063758;28;20193;-69
2023/12/13 07:41:22;;;;;;;7.00;2.80;;;;;;;10.11;94.66;98888.72;5061971;28;20912;-71
2023/12/13 07:43:52;;;;;;;6.83;2.30;;;;;;;10.11;94.24;98888.72;5062039;28;20935;-71
2023/12/13 07:46:28;;;;;;;9.77;2.70;;;;;;;10.08;94.23;98891.75;5059723;28;20295;-72
2023/12/13 07:49:23;;;;;;;10.03;3.00;;;;;;;10.09;94.21;98889.94;5062784;28;20866;-72
2023/12/13 07:51:54;;;;;;;6.37;2.40;;;;;;;10.12;94.16;98889.53;5060621;28;20329;-69
2023/12/13 07:54:31;;;;;;;7.60;2.80;;;;;;;10.12;94.00;98892.19;5060878;28;20211;-72
2023/12/13 07:57:01;;;;;;;6.20;2.87;;;;;;;10.12;93.80;98889.53;5061466;28;20731;-72
2023/12/13 07:59:45;;;;;;;9.00;2.60;;;;;;;10.10;93.96;98892.41;5056387;28;21086;-72
2023/12/13 08:02:20;;;;;;;7.23;2.23;;;;;;;10.10;94.09;98887.09;5060154;28;20774;-71
2023/12/13 08:04:49;;;;;;;5.57;2.40;;;;;;;10.09;94.20;98885.47;5064124;28;20271;-70
2023/12/13 08:07:18;;;;;;;5.97;2.13;;;;;;;10.09;94.30;98888.09;5046138;28;20427;-71
2023/12/13 08:09:46;;;;;;;7.37;2.10;;;;;;;10.05;94.44;98886.00;5063925;28;20216;-71
2023/12/13 08:12:14;;;;;;;4.00;1.70;;;;;;;10.01;94.71;98884.72;5063356;28;20291;-68
2023/12/13 08:14:42;;;;;;;6.10;1.97;;;;;;;9.95;95.16;98888.91;5064890;28;20204;-69
2023/12/13 08:17:11;;;;;;;9.77;2.33;;;;;;;9.94;95.71;98895.19;5061783;28;20209;-71
2023/12/13 08:19:42;;;;;;;6.90;2.27;;;;;;;9.93;95.90;98880.34;5065429;28;20551;-67
2023/12/13 08:22:10;;;;;;;7.60;3.10;;;;;;;9.99;96.08;98884.09;5063946;28;20699;-69
2023/12/13 08:24:38;;;;;;;7.07;2.20;;;;;;;10.11;95.27;98894.00;5063444;28;20204;-74
2023/12/13 08:27:06;;;;;;;6.27;2.37;;;;;;;10.20;94.70;98886.03;5064692;28;20282;-68
2023/12/13 08:29:34;;;;;;;8.43;3.07;;;;;;;10.24;94.33;98882.81;5063924;28;20803;-71
2023/12/13 08:32:02;;;;;;;9.50;2.83;;;;;;;10.26;94.04;98893.25;5064014;28;20196;-71
2023/12/13 08:34:31;;;;;;;7.47;3.10;;;;;;;10.34;93.82;98898.44;5064329;28;20209;-71
2023/12/13 08:37:01;;;;;;;5.17;2.60;;;;;;;10.38;93.54;98894.41;5062231;28;20212;-73
2023/12/13 08:39:29;;;;;;;8.33;2.83;;;;;;;10.45;93.05;98890.03;5064226;28;20216;-73
2023/12/13 08:41:58;;;;;;;6.20;2.63;;;;;;;10.50;92.67;98898.22;5062349;28;20219;-72
2023/12/13 08:44:25;;;;;;;6.23;2.57;;;;;;;10.51;92.15;98895.41;5062292;28;20301;-71
2023/12/13 08:46:54;;;;;;;6.67;2.10;;;;;;;10.53;92.26;98898.69;5062211;28;20233;-71
2023/12/13 08:49:24;;;;;;;3.43;2.20;;;;;;;10.57;92.07;98901.78;5045529;28;20221;-74
2023/12/13 08:51:57;;;;;;;11.07;2.73;;;;;;;10.52;91.66;98902.34;5060741;28;20211;-71
2023/12/13 08:54:28;;;;;;;5.53;2.63;;;;;;;10.61;92.26;98908.34;5060975;28;20200;-71
2023/12/13 08:56:56;;;;;;;11.83;4.03;;;;;;;10.81;91.63;98905.94;5058443;28;20665;-74
2023/12/13 08:59:24;;;;;;;6.00;2.43;;;;;;;10.96;90.70;98898.75;5059701;28;20556;-70
2023/12/13 09:01:52;;;;;;;8.17;2.30;;;;;;;11.05;89.76;98899.44;5060685;28;20230;-72
2023/12/13 09:04:20;;;;;;;7.07;3.10;;;;;;;11.12;89.35;98897.66;5057753;28;20212;-72
2023/12/13 09:07:01;;;;;;;6.47;3.70;;;;;;;11.15;89.24;98892.81;5058149;28;20225;-72
2023/12/13 09:09:37;;;;;;;11.53;3.20;;;;;;;11.23;89.19;98895.34;5057843;28;20224;-72
2023/12/13 09:12:20;;;;;;;5.33;2.73;;;;;;;11.37;88.82;98888.31;5060470;28;20233;-71
2023/12/13 09:15:09;;;;;;;5.80;2.53;;;;;;;11.63;88.20;98893.00;5059177;28;20214;-70
2023/12/13 09:17:45;;;;;;;5.53;2.27;;;;;;;11.84;86.65;98897.47;5058839;28;20215;-75
2023/12/13 09:20:29;;;;;;;6.10;2.50;;;;;;;11.80;85.95;98896.22;5059291;28;20210;-75
2023/12/13 09:23:02;;;;;;;9.37;3.00;;;;;;;11.80;86.06;98898.88;5062000;28;20207;-71
2023/12/13 09:25:46;;;;;;;8.30;2.47;;;;;;;11.83;86.01;98901.16;5059099;28;20280;-73
2023/12/13 09:31:27;;;;;;;7.17;2.70;;;;;;;11.98;84.88;98912.47;5053999;28;20196;-71
2023/12/13 09:34:21;;;;;;;4.93;2.43;;;;;;;11.90;84.77;98909.97;5052018;28;20649;-72
2023/12/13 09:36:57;;;;;;;4.87;2.60;;;;;;;11.85;85.35;98912.41;5056471;28;20203;-74
2023/12/13 09:39:51;;;;;;;;;;;;;;;;;;;;;
2023/12/13 09:42:49;;;;;;;6.27;2.37;;;;;;;11.69;85.61;98911.66;4964289;28;20241;-71
2023/12/13 09:48:26;;;;;;;5.90;2.93;;;;;;;11.70;85.37;98913.28;4966204;28;20208;-70
2023/12/13 09:51:09;;;;;;;7.23;2.50;;;;;;;11.74;84.98;98919.03;4968956;28;20205;-73
2023/12/13 09:54:06;;;;;;;10.97;2.90;;;;;;;11.82;84.88;98910.13;4964445;28;20225;-72
2023/12/13 09:56:45;;;;;;;4.37;2.23;;;;;;;11.84;84.71;98903.63;4961965;28;20221;-74
2023/12/13 10:00:03;;;;;;;6.07;2.23;;;;;;;11.86;84.25;98914.06;4948935;28;20218;-72
2023/12/13 10:02:40;;;;;;;7.13;2.10;;;;;;;11.84;84.50;98911.59;4967290;28;20752;-75
2023/12/13 10:05:49;;;;;;;7.43;2.20;;;;;;;11.84;84.58;98918.72;4966495;28;20249;-73
2023/12/13 10:11:45;;;;;;;6.70;2.07;;;;;;;11.74;82.89;98918.22;4869486;28;20956;-70
2023/12/13 10:14:14;;;;;;;6.30;2.10;;;;;;;11.76;82.84;98916.22;4966873;28;20310;-72
2023/12/13 10:16:44;;;;;;;3.07;1.23;;;;;;;11.72;81.72;98923.72;4965599;28;20350;-69
2023/12/13 10:19:13;;;;;;;3.80;1.10;;;;;;;11.72;81.24;98926.38;5033477;28;20227;-70
2023/12/13 10:21:41;;;;;;;5.53;1.00;;;;;;;11.69;80.60;98908.19;5066053;28;20204;-69
2023/12/13 10:24:10;;;;;;;5.33;1.17;;;;;;;11.70;80.57;98912.44;5065296;28;20257;-72
2023/12/13 10:26:45;;;;;;;3.23;0.87;;;;;;;11.74;79.89;98912.91;5060042;28;20302;-68
2023/12/13 10:29:13;;;;;;;2.67;0.70;;;;;;;11.80;79.24;98912.16;5063535;28;20207;-69
2023/12/13 10:32:02;;;;;;;3.00;0.60;;;;;;;11.81;78.81;98911.13;5063137;28;20730;-69
2023/12/13 10:34:31;;;;;;;2.13;0.50;;;;;;;11.81;78.67;98897.88;5063128;28;20210;-71
2023/12/13 10:37:00;;;;;;;4.90;0.60;;;;;;;11.78;78.56;98909.72;5061015;28;20218;-68
2023/12/13 10:39:30;;;;;;;4.90;0.83;;;;;;;11.77;78.98;98896.63;5062200;28;20310;-71
2023/12/13 10:42:00;;;;;;;2.03;0.70;;;;;;;11.78;78.83;98899.09;5063076;28;20232;-69
2023/12/13 10:44:32;;;;;;;3.87;0.50;;;;;;;11.81;79.07;98892.53;5060634;28;21048;-70
2023/12/13 10:50:48;;;;;;;1.57;0.60;;;;;;;11.83;79.06;98890.53;5003245;28;20212;-69
2023/12/13 10:56:17;;;;;;;2.63;0.60;;;;;;;11.78;78.70;98893.78;5049450;28;20204;-72
2023/12/13 10:59:44;;;;;;;1.80;0.63;;;;;;;11.86;77.74;98890.97;5057416;28;20665;-69
2023/12/13 11:02:30;;;;;;;5.23;0.70;;;;;;;11.94;77.10;98895.31;5060121;28;20565;-72
2023/12/13 11:05:21;;;;;;;3.60;0.73;;;;;;;11.93;77.44;98898.97;5060463;28;20212;-71
2023/12/13 11:07:55;;;;;;;2.30;0.60;;;;;;;11.91;77.16;98907.13;5063363;28;20215;-69
2023/12/13 11:10:36;;;;;;;1.43;0.43;;;;;;;12.01;77.47;98904.13;5063913;28;20676;-69
2023/12/13 11:17:15;;;;;;;2.97;0.90;;;;;;;12.22;77.05;98904.06;5063967;28;20570;-69
2023/12/13 11:19:58;;;;;;;1.70;0.47;;;;;;;12.20;77.22;98900.78;5064328;28;20231;-71
2023/12/13 11:23:01;;;;;;;1.63;0.60;;;;;;;12.26;76.98;98892.00;5064758;28;20199;-72
2023/12/13 11:25:45;;;;;;;1.37;0.50;;;;;;;12.29;77.33;98890.81;5064382;28;20294;-70
2023/12/13 11:28:31;;;;;;;1.83;0.50;;;;;;;12.37;76.69;98888.78;5059666;28;20319;-68
2023/12/13 11:31:21;;;;;;;2.50;0.60;;;;;;;12.73;75.90;98888.53;5062149;28;20208;-71
2023/12/13 11:34:12;;;;;;;1.50;0.60;;;;;;;13.11;74.48;98880.00;5062194;28;20291;-69
2023/12/13 11:37:08;;;;;;;5.00;1.00;;;;;;;13.38;73.11;98878.19;5055859;28;20359;-70
2023/12/13 11:39:56;;;;;;;1.60;0.67;;;;;;;13.44;72.35;98880.06;5039916;28;20204;-68
2023/12/13 11:42:56;;;;;;;5.20;1.00;;;;;;;13.48;72.26;98876.78;5061492;28;20240;-71
2023/12/13 11:45:27;;;;;;;7.13;0.83;;;;;;;13.48;72.23;98876.78;5061725;28;20866;-71
2023/12/13 11:48:34;;;;;;;5.37;1.33;;;;;;;13.48;71.80;98875.97;5059992;28;20298;-70
2023/12/13 11:51:27;;;;;;;2.93;0.70;;;;;;;13.42;72.02;98880.28;5068753;28;20209;-70
2023/12/13 11:54:03;;;;;;;2.10;0.90;;;;;;;13.34;72.03;98880.47;5066924;28;20204;-71
2023/12/13 11:56:37;;;;;;;3.53;1.20;;;;;;;13.35;72.32;98892.75;5067045;28;20672;-72
2023/12/13 11:59:21;;;;;;;;;;;;;;;;;;;;;
2023/12/13 12:02:08;;;;;;;4.27;1.37;;;;;;;13.28;71.80;98883.13;5060009;28;20226;-70
2023/12/13 12:05:13;;;;;;;9.53;1.70;;;;;;;13.34;71.18;98884.97;5041880;28;20204;-70
2023/12/13 12:07:44;;;;;;;4.93;1.07;;;;;;;13.46;70.94;98878.00;5062717;28;20604;-70
2023/12/13 12:15:21;;;;;;;3.90;1.40;;;;;;;13.65;70.19;98874.50;4926079;28;20232;-72
2023/12/13 12:48:54;;;;;;;4.53;1.10;;;;;;;13.39;70.98;98861.22;4757928;29;20258;-69
2023/12/13 12:55:39;;;;;;;6.37;2.13;;;;;;;13.09;72.05;98858.09;4729982;30;20237;-72
2023/12/13 12:58:09;;;;;;;8.20;2.17;;;;;;;13.03;72.53;98858.91;4775719;29;20228;-72
2023/12/13 13:00:55;;;;;;;6.23;1.80;;;;;;;12.93;72.79;98851.31;4906404;28;20659;-73
2023/12/13 13:04:19;;;;;;;7.00;1.93;;;;;;;12.86;73.33;98860.31;5056230;28;20788;-71
2023/12/13 13:15:38;;;;;;;4.73;1.70;;;;;;;13.02;72.95;98859.91;4838140;29;20708;-73
2023/12/13 13:25:32;;;;;;;5.47;1.33;;;;;;;13.27;71.79;98862.88;4961075;28;20784;-70
2023/12/13 13:28:11;;;;;;;6.20;1.37;;;;;;;13.18;71.23;98864.91;4964752;28;20227;-71
2023/12/13 13:34:54;;;;;;;9.93;1.90;;;;;;;12.86;72.21;98854.97;4922804;29;20215;-71
2023/12/13 13:38:10;;;;;;;8.73;1.90;;;;;;;12.72;73.00;98854.16;4904368;28;20288;-73
2023/12/13 13:41:28;;;;;;;8.70;2.40;;;;;;;12.67;73.30;98843.28;4947484;28;20206;-71
2023/12/13 13:44:21;;;;;;;6.83;2.10;;;;;;;12.62;73.54;98849.22;4990328;28;20196;-70
2023/12/13 13:51:27;;;;;;;7.07;3.00;;;;;;;12.52;74.20;98853.25;5044507;28;20249;-69
2023/12/13 14:02:17;;;;;;;11.87;4.40;;;;;;;12.52;74.18;98858.56;4958003;28;20857;-71
2023/12/13 14:13:39;;;;;;;8.60;2.60;;;;;;;12.72;73.72;98859.47;4780365;29;20694;-71
2023/12/13 14:24:28;;;;;;;9.90;4.00;;;;;;;12.67;74.06;98867.22;4807218;29;20241;-71
2023/12/13 14:30:42;;;;;;;7.47;2.10;;;;;;;12.66;72.89;98886.88;5036028;28;20571;-70
2023/12/13 14:37:43;;;;;;;;;;;;;;;;;;;;;
2023/12/13 14:40:47;;;;;;;8.07;2.20;;;;;;;12.60;71.94;98891.13;5031540;28;20310;-70
2023/12/13 14:53:32;;;;;;;7.57;1.87;;;;;;;12.57;74.05;98896.03;5064791;28;20570;-71
2023/12/13 15:11:33;;;;;;;3.17;1.20;;;;;;;12.33;70.75;98919.44;4963645;28;20743;-71
2023/12/13 15:41:47;;;;;;;14.13;3.00;;;;;;;11.81;70.14;98941.16;4829619;29;20263;-71
2023/12/13 15:53:07;;;;;;;11.23;3.50;;;;;;;11.67;71.52;98945.53;4807476;29;20213;-68
2023/12/13 15:59:15;;;;;;;6.80;2.33;;;;;;;11.67;71.61;98958.81;4881480;28;20236;-71
2023/12/13 16:05:20;;;;;;;7.90;2.50;;;;;;;11.67;70.79;98961.47;5060772;28;20700;-72
2023/12/13 16:19:09;;;;;;;9.60;3.53;;;;;;;11.59;72.80;98974.06;4955925;28;20218;-69
2023/12/13 16:25:28;;;;;;;9.57;4.07;;;;;;;11.58;72.99;98983.84;4978335;28;20233;-69
2023/12/13 16:28:24;;;;;;;15.93;7.83;;;;;;;11.53;73.33;98990.72;5063446;28;20599;-75
2023/12/13 16:34:05;;;;;;;9.17;4.67;;;;;;;11.43;74.31;98990.25;5055204;28;20206;-70
2023/12/13 16:39:39;;;;;;;15.67;8.63;;;;;;;11.42;74.50;99002.69;5062994;28;20218;-68
2023/12/13 16:42:34;;;;;;;16.70;9.70;;;;;;;11.40;74.48;99007.34;5064171;28;20276;-69
2023/12/13 16:45:28;;;;;;;15.67;8.30;;;;;;;11.40;74.72;99010.00;5062350;28;20243;-69
2023/12/13 16:48:18;;;;;;;12.00;6.37;;;;;;;11.49;74.28;99005.41;5055984;28;20221;-70
2023/12/13 16:51:10;;;;;;;11.23;6.43;;;;;;;11.50;74.75;99001.75;5044080;28;20293;-68